sensor_id;sensor_type;location;lat;lon;timestamp;pressure;altitude;pressure_sealevel;temperature;humidity
62725;BME280;49026;52.600;4.694;2023-04-21T00:00:25;101736.56;;;8.18;69.15
62725;BME280;49026;52.600;4.694;2023-04-21T00:02:52;101719.97;;;8.19;68.12
62725;BME280;49026;52.600;4.694;2023-04-21T00:05:18;101719.06;;;8.20;68.95
62725;BME280;49026;52.600;4.694;2023-04-21T00:07:43;101706.81;;;8.20;72.98
62725;BME280;49026;52.600;4.694;2023-04-21T00:10:10;101707.69;;;8.22;72.66
62725;BME280;49026;52.600;4.694;2023-04-21T00:12:38;101700.66;;;8.24;72.85
62725;BME280;49026;52.600;4.694;2023-04-21T00:15:04;101695.41;;;8.24;70.90
62725;BME280;49026;52.600;4.694;2023-04-21T00:17:30;101698.91;;;8.25;69.44
62725;BME280;49026;52.600;4.694;2023-04-21T00:19:55;101709.38;;;8.25;70.86
62725;BME280;49026;52.600;4.694;2023-04-21T00:22:20;101704.13;;;8.25;69.74
62725;BME280;49026;52.600;4.694;2023-04-21T00:24:46;101702.34;;;8.27;68.28
62725;BME280;49026;52.600;4.694;2023-04-21T00:27:11;101694.50;;;8.27;69.82
62725;BME280;49026;52.600;4.694;2023-04-21T00:29:37;101696.31;;;8.23;70.59
62725;BME280;49026;52.600;4.694;2023-04-21T00:32:04;101695.50;;;8.18;73.55
62725;BME280;49026;52.600;4.694;2023-04-21T00:34:32;101693.91;;;8.11;72.86
62725;BME280;49026;52.600;4.694;2023-04-21T00:37:00;101685.25;;;8.06;72.45
62725;BME280;49026;52.600;4.694;2023-04-21T00:39:26;101683.66;;;7.97;74.58
62725;BME280;49026;52.600;4.694;2023-04-21T00:41:53;101691.56;;;7.94;71.76
62725;BME280;49026;52.600;4.694;2023-04-21T00:44:24;101685.50;;;7.90;71.82
62725;BME280;49026;52.600;4.694;2023-04-21T00:46:49;101675.09;;;7.87;71.96
62725;BME280;49026;52.600;4.694;2023-04-21T00:49:14;101675.13;;;7.84;72.32
62725;BME280;49026;52.600;4.694;2023-04-21T00:51:40;101657.78;;;7.78;74.44
62725;BME280;49026;52.600;4.694;2023-04-21T00:54:06;101656.94;;;7.73;72.80
62725;BME280;49026;52.600;4.694;2023-04-21T00:56:33;101643.97;;;7.69;72.67
62725;BME280;49026;52.600;4.694;2023-04-21T00:59:02;101644.03;;;7.64;71.46
62725;BME280;49026;52.600;4.694;2023-04-21T01:01:28;101636.22;;;7.61;70.28
62725;BME280;49026;52.600;4.694;2023-04-21T01:03:57;101638.84;;;7.59;72.00
62725;BME280;49026;52.600;4.694;2023-04-21T01:06:23;101625.81;;;7.58;72.47
62725;BME280;49026;52.600;4.694;2023-04-21T01:08:51;101630.19;;;7.57;71.80
62725;BME280;49026;52.600;4.694;2023-04-21T01:11:16;101623.19;;;7.58;72.28
62725;BME280;49026;52.600;4.694;2023-04-21T01:13:42;101617.97;;;7.58;70.01
62725;BME280;49026;52.600;4.694;2023-04-21T01:16:07;101609.25;;;7.57;70.21
62725;BME280;49026;52.600;4.694;2023-04-21T01:18:34;101617.13;;;7.56;69.22
62725;BME280;49026;52.600;4.694;2023-04-21T01:21:03;101614.50;;;7.56;68.76
62725;BME280;49026;52.600;4.694;2023-04-21T01:23:28;101618.88;;;7.57;70.07
62725;BME280;49026;52.600;4.694;2023-04-21T01:25:53;101616.25;;;7.57;70.71
62725;BME280;49026;52.600;4.694;2023-04-21T01:28:23;101615.38;;;7.55;71.86
62725;BME280;49026;52.600;4.694;2023-04-21T01:30:49;101617.97;;;7.56;71.09
62725;BME280;49026;52.600;4.694;2023-04-21T01:33:17;101605.78;;;7.57;70.47
62725;BME280;49026;52.600;4.694;2023-04-21T01:35:43;101602.25;;;7.58;69.06
62725;BME280;49026;52.600;4.694;2023-04-21T01:38:11;101601.38;;;7.59;69.38
62725;BME280;49026;52.600;4.694;2023-04-21T01:40:37;101599.63;;;7.59;68.66
62725;BME280;49026;52.600;4.694;2023-04-21T01:43:03;101617.94;;;7.59;71.92
62725;BME280;49026;52.600;4.694;2023-04-21T01:45:30;101601.34;;;7.62;69.37
62725;BME280;49026;52.600;4.694;2023-04-21T01:47:56;101610.03;;;7.63;73.05
62725;BME280;49026;52.600;4.694;2023-04-21T01:50:21;101597.81;;;7.63;70.98
62725;BME280;49026;52.600;4.694;2023-04-21T01:52:46;101596.06;;;7.65;70.30
62725;BME280;49026;52.600;4.694;2023-04-21T01:55:12;101596.94;;;7.64;71.81
62725;BME280;49026;52.600;4.694;2023-04-21T01:57:40;101583.00;;;7.64;70.42
62725;BME280;49026;52.600;4.694;2023-04-21T02:00:07;101573.44;;;7.61;74.78
62725;BME280;49026;52.600;4.694;2023-04-21T02:02:33;101584.75;;;7.61;71.41
62725;BME280;49026;52.600;4.694;2023-04-21T02:04:58;101579.56;;;7.60;73.39
62725;BME280;49026;52.600;4.694;2023-04-21T02:07:26;101579.56;;;7.60;71.36
62725;BME280;49026;52.600;4.694;2023-04-21T02:09:51;101583.06;;;7.59;72.31
62725;BME280;49026;52.600;4.694;2023-04-21T02:12:17;101571.81;;;7.55;73.84
62725;BME280;49026;52.600;4.694;2023-04-21T02:14:43;101577.94;;;7.53;74.58
62725;BME280;49026;52.600;4.694;2023-04-21T02:17:08;101570.94;;;7.53;74.28
62725;BME280;49026;52.600;4.694;2023-04-21T02:19:33;101578.84;;;7.52;77.90
62725;BME280;49026;52.600;4.694;2023-04-21T02:21:59;101581.47;;;7.52;78.83
62725;BME280;49026;52.600;4.694;2023-04-21T02:24:26;101570.13;;;7.50;85.67
62725;BME280;49026;52.600;4.694;2023-04-21T02:26:52;101571.91;;;7.48;84.95
62725;BME280;49026;52.600;4.694;2023-04-21T02:29:17;101570.19;;;7.47;81.55
62725;BME280;49026;52.600;4.694;2023-04-21T02:31:42;101571.06;;;7.47;79.34
62725;BME280;49026;52.600;4.694;2023-04-21T02:34:08;101569.31;;;7.48;79.14
62725;BME280;49026;52.600;4.694;2023-04-21T02:36:33;101559.66;;;7.50;75.99
62725;BME280;49026;52.600;4.694;2023-04-21T02:38:58;101543.97;;;7.50;75.04
62725;BME280;49026;52.600;4.694;2023-04-21T02:41:23;101543.94;;;7.53;72.30
62725;BME280;49026;52.600;4.694;2023-04-21T02:43:49;101549.13;;;7.54;71.43
62725;BME280;49026;52.600;4.694;2023-04-21T02:46:14;101540.41;;;7.57;69.67
62725;BME280;49026;52.600;4.694;2023-04-21T02:48:39;101529.84;;;7.60;68.74
62725;BME280;49026;52.600;4.694;2023-04-21T02:51:10;101528.09;;;7.62;69.13
62725;BME280;49026;52.600;4.694;2023-04-21T02:53:36;101531.53;;;7.66;69.19
62725;BME280;49026;52.600;4.694;2023-04-21T02:56:01;101536.78;;;7.64;70.16
62725;BME280;49026;52.600;4.694;2023-04-21T02:58:29;101530.69;;;7.64;69.63
62725;BME280;49026;52.600;4.694;2023-04-21T03:00:54;101534.16;;;7.64;69.30
62725;BME280;49026;52.600;4.694;2023-04-21T03:03:20;101537.63;;;7.66;68.29
62725;BME280;49026;52.600;4.694;2023-04-21T03:05:45;101534.94;;;7.69;68.31
62725;BME280;49026;52.600;4.694;2023-04-21T03:08:10;101541.91;;;7.70;68.53
62725;BME280;49026;52.600;4.694;2023-04-21T03:10:38;101533.16;;;7.71;68.37
62725;BME280;49026;52.600;4.694;2023-04-21T03:13:03;101537.53;;;7.72;67.95
62725;BME280;49026;52.600;4.694;2023-04-21T03:15:31;101533.16;;;7.71;68.25
62725;BME280;49026;52.600;4.694;2023-04-21T03:17:56;101537.53;;;7.71;68.43
62725;BME280;49026;52.600;4.694;2023-04-21T03:20:25;101535.00;;;7.66;69.11
62725;BME280;49026;52.600;4.694;2023-04-21T03:22:52;101542.03;;;7.63;69.22
62725;BME280;49026;52.600;4.694;2023-04-21T03:25:18;101539.47;;;7.59;69.83
62725;BME280;49026;52.600;4.694;2023-04-21T03:27:43;101538.63;;;7.57;69.20
62725;BME280;49026;52.600;4.694;2023-04-21T03:30:09;101543.88;;;7.56;68.67
62725;BME280;49026;52.600;4.694;2023-04-21T03:32:34;101539.50;;;7.56;69.24
62725;BME280;49026;52.600;4.694;2023-04-21T03:35:00;101544.75;;;7.56;68.86
62725;BME280;49026;52.600;4.694;2023-04-21T03:37:25;101543.88;;;7.56;69.35
62725;BME280;49026;52.600;4.694;2023-04-21T03:39:50;101539.50;;;7.58;69.21
62725;BME280;49026;52.600;4.694;2023-04-21T03:42:18;101532.56;;;7.57;68.51
62725;BME280;49026;52.600;4.694;2023-04-21T03:44:43;101534.28;;;7.56;68.56
62725;BME280;49026;52.600;4.694;2023-04-21T03:47:09;101543.88;;;7.56;68.39
62725;BME280;49026;52.600;4.694;2023-04-21T03:49:36;101536.91;;;7.55;70.22
62725;BME280;49026;52.600;4.694;2023-04-21T03:52:02;101533.44;;;7.56;72.48
62725;BME280;49026;52.600;4.694;2023-04-21T03:54:29;101533.44;;;7.56;74.45
62725;BME280;49026;52.600;4.694;2023-04-21T03:56:55;101536.88;;;7.58;70.41
62725;BME280;49026;52.600;4.694;2023-04-21T03:59:20;101529.84;;;7.60;70.23
62725;BME280;49026;52.600;4.694;2023-04-21T04:01:45;101526.34;;;7.63;72.51
62725;BME280;49026;52.600;4.694;2023-04-21T04:04:10;101532.44;;;7.63;73.23
62725;BME280;49026;52.600;4.694;2023-04-21T04:06:36;101533.28;;;7.65;74.76
62725;BME280;49026;52.600;4.694;2023-04-21T04:09:01;101535.84;;;7.67;73.69
62725;BME280;49026;52.600;4.694;2023-04-21T04:11:29;101538.44;;;7.68;73.41
62725;BME280;49026;52.600;4.694;2023-04-21T04:13:54;101534.06;;;7.70;70.24
62725;BME280;49026;52.600;4.694;2023-04-21T04:16:20;101525.31;;;7.71;71.28
62725;BME280;49026;52.600;4.694;2023-04-21T04:18:45;101527.94;;;7.71;70.79
62725;BME280;49026;52.600;4.694;2023-04-21T04:21:10;101532.31;;;7.71;70.85
62725;BME280;49026;52.600;4.694;2023-04-21T04:23:36;101526.22;;;7.70;70.31
62725;BME280;49026;52.600;4.694;2023-04-21T04:26:01;101522.72;;;7.70;69.25
62725;BME280;49026;52.600;4.694;2023-04-21T04:28:29;101513.16;;;7.70;68.70
62725;BME280;49026;52.600;4.694;2023-04-21T04:30:55;101509.63;;;7.71;69.50
62725;BME280;49026;52.600;4.694;2023-04-21T04:33:20;101474.78;;;7.69;69.10
62725;BME280;49026;52.600;4.694;2023-04-21T04:35:45;101474.78;;;7.69;68.91
62725;BME280;49026;52.600;4.694;2023-04-21T04:38:11;101480.00;;;7.69;67.98
62725;BME280;49026;52.600;4.694;2023-04-21T04:40:40;101487.03;;;7.67;70.30
62725;BME280;49026;52.600;4.694;2023-04-21T04:43:09;101481.81;;;7.67;68.70
62725;BME280;49026;52.600;4.694;2023-04-21T04:45:37;101484.41;;;7.67;68.16
62725;BME280;49026;52.600;4.694;2023-04-21T04:48:03;101510.56;;;7.67;70.61
62725;BME280;49026;52.600;4.694;2023-04-21T04:50:28;101518.41;;;7.69;74.66
62725;BME280;49026;52.600;4.694;2023-04-21T04:52:54;101525.34;;;7.70;78.52
62725;BME280;49026;52.600;4.694;2023-04-21T04:55:20;101521.81;;;7.72;79.02
62725;BME280;49026;52.600;4.694;2023-04-21T04:57:46;101520.06;;;7.73;76.61
62725;BME280;49026;52.600;4.694;2023-04-21T05:00:11;101528.75;;;7.75;75.52
62725;BME280;49026;52.600;4.694;2023-04-21T05:02:38;101515.66;;;7.75;75.03
62725;BME280;49026;52.600;4.694;2023-04-21T05:05:06;101520.00;;;7.77;76.94
62725;BME280;49026;52.600;4.694;2023-04-21T05:07:33;101512.97;;;7.79;74.16
62725;BME280;49026;52.600;4.694;2023-04-21T05:09:58;101508.59;;;7.80;73.85
62725;BME280;49026;52.600;4.694;2023-04-21T05:12:23;101505.06;;;7.83;71.65
62725;BME280;49026;52.600;4.694;2023-04-21T05:14:49;101512.88;;;7.84;75.69
62725;BME280;49026;52.600;4.694;2023-04-21T05:17:14;101518.97;;;7.85;81.10
62725;BME280;49026;52.600;4.694;2023-04-21T05:19:39;101521.56;;;7.86;79.82
62725;BME280;49026;52.600;4.694;2023-04-21T05:22:07;101522.38;;;7.90;85.82
62725;BME280;49026;52.600;4.694;2023-04-21T05:24:35;101520.72;;;7.86;82.43
62725;BME280;49026;52.600;4.694;2023-04-21T05:27:03;101520.66;;;7.89;85.00
62725;BME280;49026;52.600;4.694;2023-04-21T05:29:29;101525.88;;;7.90;88.41
62725;BME280;49026;52.600;4.694;2023-04-21T05:31:55;101538.97;;;7.89;87.17
62725;BME280;49026;52.600;4.694;2023-04-21T05:34:20;101523.28;;;7.89;85.73
62725;BME280;49026;52.600;4.694;2023-04-21T05:36:47;101515.38;;;7.92;89.22
62725;BME280;49026;52.600;4.694;2023-04-21T05:39:13;101526.72;;;7.91;87.33
62725;BME280;49026;52.600;4.694;2023-04-21T05:41:41;101534.53;;;7.94;91.26
62725;BME280;49026;52.600;4.694;2023-04-21T05:44:10;101538.03;;;7.91;90.40
62725;BME280;49026;52.600;4.694;2023-04-21T05:46:35;101532.78;;;7.93;91.48
62725;BME280;49026;52.600;4.694;2023-04-21T05:49:00;101529.28;;;7.94;93.75
62725;BME280;49026;52.600;4.694;2023-04-21T05:51:28;101532.75;;;7.94;92.88
62725;BME280;49026;52.600;4.694;2023-04-21T05:53:53;101521.41;;;7.95;90.54
62725;BME280;49026;52.600;4.694;2023-04-21T05:56:19;101530.94;;;7.98;91.28
62725;BME280;49026;52.600;4.694;2023-04-21T05:58:44;101509.13;;;7.99;90.32
62725;BME280;49026;52.600;4.694;2023-04-21T06:01:09;101518.63;;;8.03;90.93
62725;BME280;49026;52.600;4.694;2023-04-21T06:03:35;101515.13;;;8.04;87.60
62725;BME280;49026;52.600;4.694;2023-04-21T06:06:02;101516.78;;;8.08;84.69
62725;BME280;49026;52.600;4.694;2023-04-21T06:08:28;101522.88;;;8.10;84.37
62725;BME280;49026;52.600;4.694;2023-04-21T06:10:56;101521.97;;;8.11;82.97
62725;BME280;49026;52.600;4.694;2023-04-21T06:13:21;101513.19;;;8.15;88.36
62725;BME280;49026;52.600;4.694;2023-04-21T06:15:46;101512.34;;;8.13;86.69
62725;BME280;49026;52.600;4.694;2023-04-21T06:18:11;101524.50;;;8.16;92.59
62725;BME280;49026;52.600;4.694;2023-04-21T06:20:40;101523.63;;;8.17;92.24
62725;BME280;49026;52.600;4.694;2023-04-21T06:23:06;101516.63;;;8.18;94.24
62725;BME280;49026;52.600;4.694;2023-04-21T06:25:31;101522.69;;;8.20;95.51
62725;BME280;49026;52.600;4.694;2023-04-21T06:27:56;101527.88;;;8.23;96.10
62725;BME280;49026;52.600;4.694;2023-04-21T06:30:24;101527.84;;;8.24;96.25
62725;BME280;49026;52.600;4.694;2023-04-21T06:32:49;101514.69;;;8.29;94.72
62725;BME280;49026;52.600;4.694;2023-04-21T06:35:16;101525.00;;;8.35;93.18
62725;BME280;49026;52.600;4.694;2023-04-21T06:37:42;101519.66;;;8.41;94.03
62725;BME280;49026;52.600;4.694;2023-04-21T06:40:08;101523.09;;;8.45;92.78
62725;BME280;49026;52.600;4.694;2023-04-21T06:42:36;101523.91;;;8.48;90.64
62725;BME280;49026;52.600;4.694;2023-04-21T06:45:04;101513.31;;;8.55;93.73
62725;BME280;49026;52.600;4.694;2023-04-21T06:47:33;101507.25;;;8.52;91.52
62725;BME280;49026;52.600;4.694;2023-04-21T06:49:58;101519.41;;;8.55;90.13
62725;BME280;49026;52.600;4.694;2023-04-21T06:52:23;101526.34;;;8.58;90.04
62725;BME280;49026;52.600;4.694;2023-04-21T06:54:49;101519.25;;;8.63;94.09
62725;BME280;49026;52.600;4.694;2023-04-21T06:57:16;101514.91;;;8.60;92.80
62725;BME280;49026;52.600;4.694;2023-04-21T06:59:42;101510.56;;;8.61;88.76
62725;BME280;49026;52.600;4.694;2023-04-21T07:02:09;101524.47;;;8.63;88.86
62725;BME280;49026;52.600;4.694;2023-04-21T07:04:35;101515.72;;;8.65;86.13
62725;BME280;49026;52.600;4.694;2023-04-21T07:07:00;101506.91;;;8.68;86.43
62725;BME280;49026;52.600;4.694;2023-04-21T07:09:28;101516.53;;;8.67;90.19
62725;BME280;49026;52.600;4.694;2023-04-21T07:11:56;101504.31;;;8.66;87.20
62725;BME280;49026;52.600;4.694;2023-04-21T07:14:21;101510.34;;;8.70;92.20
62725;BME280;49026;52.600;4.694;2023-04-21T07:16:46;101519.19;;;8.66;93.61
62725;BME280;49026;52.600;4.694;2023-04-21T07:19:12;101522.69;;;8.65;90.33
62725;BME280;49026;52.600;4.694;2023-04-21T07:21:37;101521.78;;;8.67;89.88
62725;BME280;49026;52.600;4.694;2023-04-21T07:24:03;101524.31;;;8.72;95.00
62725;BME280;49026;52.600;4.694;2023-04-21T07:26:28;101536.63;;;8.67;93.98
62725;BME280;49026;52.600;4.694;2023-04-21T07:28:54;101529.59;;;8.69;95.18
62725;BME280;49026;52.600;4.694;2023-04-21T07:31:22;101511.13;;;8.74;94.78
62725;BME280;49026;52.600;4.694;2023-04-21T07:33:48;101508.31;;;8.84;94.16
62725;BME280;49026;52.600;4.694;2023-04-21T07:36:13;101498.47;;;8.94;94.71
62725;BME280;49026;52.600;4.694;2023-04-21T07:38:42;101520.19;;;8.99;94.82
62725;BME280;49026;52.600;4.694;2023-04-21T07:41:09;101537.69;;;8.99;95.19
62725;BME280;49026;52.600;4.694;2023-04-21T07:43:35;101521.16;;;8.95;92.24
62725;BME280;49026;52.600;4.694;2023-04-21T07:46:00;101491.34;;;9.01;91.62
62725;BME280;49026;52.600;4.694;2023-04-21T07:48:28;101513.13;;;9.03;92.67
62725;BME280;49026;52.600;4.694;2023-04-21T07:50:53;101518.38;;;9.03;91.86
62725;BME280;49026;52.600;4.694;2023-04-21T07:53:18;101523.63;;;9.03;92.48
62725;BME280;49026;52.600;4.694;2023-04-21T07:55:44;101532.22;;;9.08;97.14
62725;BME280;49026;52.600;4.694;2023-04-21T07:58:09;101520.91;;;9.07;94.97
62725;BME280;49026;52.600;4.694;2023-04-21T08:00:35;101520.69;;;9.15;98.19
62725;BME280;49026;52.600;4.694;2023-04-21T08:03:00;101509.31;;;9.16;98.26
62725;BME280;49026;52.600;4.694;2023-04-21T08:05:28;101524.06;;;9.20;98.85
62725;BME280;49026;52.600;4.694;2023-04-21T08:07:56;101525.69;;;9.27;99.42
62725;BME280;49026;52.600;4.694;2023-04-21T08:10:21;101538.56;;;9.37;100.00
62725;BME280;49026;52.600;4.694;2023-04-21T08:12:47;101528.53;;;9.54;99.28
62725;BME280;49026;52.600;4.694;2023-04-21T08:15:12;101530.53;;;9.79;98.81
62725;BME280;49026;52.600;4.694;2023-04-21T08:17:37;101526.34;;;10.05;97.85
62725;BME280;49026;52.600;4.694;2023-04-21T08:20:05;101532.50;;;10.36;95.63
62725;BME280;49026;52.600;4.694;2023-04-21T08:22:31;101528.31;;;10.61;94.24
62725;BME280;49026;52.600;4.694;2023-04-21T08:24:56;101526.19;;;10.73;91.03
62725;BME280;49026;52.600;4.694;2023-04-21T08:27:24;101533.38;;;10.97;88.30
62725;BME280;49026;52.600;4.694;2023-04-21T08:29:49;101519.84;;;11.09;85.82
62725;BME280;49026;52.600;4.694;2023-04-21T08:32:15;101521.38;;;11.16;83.47
62725;BME280;49026;52.600;4.694;2023-04-21T08:34:46;101523.00;;;11.47;84.92
62725;BME280;49026;52.600;4.694;2023-04-21T08:37:11;101525.06;;;11.64;87.36
62725;BME280;49026;52.600;4.694;2023-04-21T08:39:37;101519.25;;;11.54;83.83
62725;BME280;49026;52.600;4.694;2023-04-21T08:42:05;101523.25;;;11.39;84.45
62725;BME280;49026;52.600;4.694;2023-04-21T08:44:30;101522.94;;;11.22;84.22
62725;BME280;49026;52.600;4.694;2023-04-21T08:46:56;101528.88;;;11.00;84.41
62725;BME280;49026;52.600;4.694;2023-04-21T08:49:28;101532.06;;;10.82;86.45
62725;BME280;49026;52.600;4.694;2023-04-21T08:51:54;101528.84;;;10.72;85.05
62725;BME280;49026;52.600;4.694;2023-04-21T08:54:20;101528.97;;;10.67;82.94
62725;BME280;49026;52.600;4.694;2023-04-21T08:56:46;101540.88;;;10.51;84.73
62725;BME280;49026;52.600;4.694;2023-04-21T08:59:12;101540.53;;;10.30;84.21
62725;BME280;49026;52.600;4.694;2023-04-21T09:02:13;101542.53;;;10.20;86.78
62725;BME280;49026;52.600;4.694;2023-04-21T09:04:43;101528.63;;;10.17;89.30
62725;BME280;49026;52.600;4.694;2023-04-21T09:07:09;101534.97;;;10.10;87.40
62725;BME280;49026;52.600;4.694;2023-04-21T09:09:56;101536.59;;;10.14;90.43
62725;BME280;49026;52.600;4.694;2023-04-21T09:12:22;101537.50;;;10.13;87.60
62725;BME280;49026;52.600;4.694;2023-04-21T09:14:49;101538.16;;;10.21;85.49
62725;BME280;49026;52.600;4.694;2023-04-21T09:17:15;101546.66;;;10.32;86.44
62725;BME280;49026;52.600;4.694;2023-04-21T09:19:48;101542.38;;;10.27;86.27
62725;BME280;49026;52.600;4.694;2023-04-21T09:22:15;101537.47;;;10.14;87.40
62725;BME280;49026;52.600;4.694;2023-04-21T09:24:45;101542.03;;;10.08;87.33
62725;BME280;49026;52.600;4.694;2023-04-21T09:27:11;101538.44;;;10.10;87.73
62725;BME280;49026;52.600;4.694;2023-04-21T09:29:36;101534.72;;;10.19;85.73
62725;BME280;49026;52.600;4.694;2023-04-21T09:32:04;101534.31;;;10.34;85.06
62725;BME280;49026;52.600;4.694;2023-04-21T09:34:29;101528.78;;;10.44;85.04
62725;BME280;49026;52.600;4.694;2023-04-21T09:37:03;101535.47;;;10.55;83.07
62725;BME280;49026;52.600;4.694;2023-04-21T09:39:30;101538.44;;;10.74;80.99
62725;BME280;49026;52.600;4.694;2023-04-21T09:41:56;101535.38;;;10.88;82.41
62725;BME280;49026;52.600;4.694;2023-04-21T09:44:23;101527.16;;;10.99;81.04
62725;BME280;49026;52.600;4.694;2023-04-21T09:46:49;101519.75;;;11.12;80.32
62725;BME280;49026;52.600;4.694;2023-04-21T09:49:19;101522.09;;;11.21;79.00
62725;BME280;49026;52.600;4.694;2023-04-21T09:51:46;101514.88;;;11.28;80.88
62725;BME280;49026;52.600;4.694;2023-04-21T09:54:15;101521.88;;;11.27;83.86
62725;BME280;49026;52.600;4.694;2023-04-21T09:56:42;101520.47;;;11.17;81.40
62725;BME280;49026;52.600;4.694;2023-04-21T10:01:54;101518.31;;;11.30;81.19
62725;BME280;49026;52.600;4.694;2023-04-21T10:04:22;101522.75;;;11.28;80.00
62725;BME280;49026;52.600;4.694;2023-04-21T10:06:50;101522.16;;;11.20;82.57
62725;BME280;49026;52.600;4.694;2023-04-21T10:09:17;101517.88;;;11.16;83.66
62725;BME280;49026;52.600;4.694;2023-04-21T10:11:45;101510.81;;;11.18;81.98
62725;BME280;49026;52.600;4.694;2023-04-21T10:14:10;101506.72;;;11.36;81.71
62725;BME280;49026;52.600;4.694;2023-04-21T10:16:38;101523.63;;;11.55;81.56
62725;BME280;49026;52.600;4.694;2023-04-21T10:19:26;101519.25;;;11.54;81.18
62725;BME280;49026;52.600;4.694;2023-04-21T10:21:54;101506.81;;;11.59;81.18
62725;BME280;49026;52.600;4.694;2023-04-21T10:24:21;101503.03;;;11.68;80.36
62725;BME280;49026;52.600;4.694;2023-04-21T10:26:49;101502.09;;;11.69;80.30
62725;BME280;49026;52.600;4.694;2023-04-21T10:29:14;101512.19;;;11.56;79.61
62725;BME280;49026;52.600;4.694;2023-04-21T10:34:11;101506.28;;;11.49;79.33
62725;BME280;49026;52.600;4.694;2023-04-21T10:39:31;101499.47;;;11.42;79.87
62725;BME280;49026;52.600;4.694;2023-04-21T10:42:23;101490.47;;;11.49;81.92
62725;BME280;49026;52.600;4.694;2023-04-21T10:47:48;101488.03;;;11.70;80.36
62725;BME280;49026;52.600;4.694;2023-04-21T10:50:23;101484.50;;;11.71;79.21
62725;BME280;49026;52.600;4.694;2023-04-21T10:53:08;101479.03;;;11.76;79.34
62725;BME280;49026;52.600;4.694;2023-04-21T10:55:35;101489.56;;;11.76;78.45
62725;BME280;49026;52.600;4.694;2023-04-21T10:58:08;101484.59;;;11.68;79.94
62725;BME280;49026;52.600;4.694;2023-04-21T11:00:34;101491.13;;;11.56;79.44
62725;BME280;49026;52.600;4.694;2023-04-21T11:03:04;101490.63;;;11.45;80.36
62725;BME280;49026;52.600;4.694;2023-04-21T11:05:33;101487.34;;;11.38;80.79
62725;BME280;49026;52.600;4.694;2023-04-21T11:08:07;101484.91;;;11.32;79.42
62725;BME280;49026;52.600;4.694;2023-04-21T11:10:49;101488.50;;;11.29;79.49
62725;BME280;49026;52.600;4.694;2023-04-21T11:13:18;101476.91;;;11.35;80.55
62725;BME280;49026;52.600;4.694;2023-04-21T11:16:07;101487.03;;;11.47;80.61
62725;BME280;49026;52.600;4.694;2023-04-21T11:18:36;101473.31;;;11.64;79.14
62725;BME280;49026;52.600;4.694;2023-04-21T11:21:15;101465.38;;;11.91;78.46
62725;BME280;49026;52.600;4.694;2023-04-21T11:23:50;101466.72;;;12.27;79.07
62725;BME280;49026;52.600;4.694;2023-04-21T11:26:16;101464.38;;;12.42;77.20
62725;BME280;49026;52.600;4.694;2023-04-21T11:28:42;101459.31;;;12.60;76.79
62725;BME280;49026;52.600;4.694;2023-04-21T11:31:07;101456.81;;;12.79;75.58
62725;BME280;49026;52.600;4.694;2023-04-21T11:33:44;101452.31;;;12.81;75.13
62725;BME280;49026;52.600;4.694;2023-04-21T11:36:10;101448.09;;;12.77;75.07
62725;BME280;49026;52.600;4.694;2023-04-21T11:38:39;101442.16;;;12.72;75.16
62725;BME280;49026;52.600;4.694;2023-04-21T11:41:04;101442.78;;;12.78;76.23
62725;BME280;49026;52.600;4.694;2023-04-21T11:43:35;101442.38;;;12.88;75.62
62725;BME280;49026;52.600;4.694;2023-04-21T11:46:31;101432.34;;;12.97;75.69
62725;BME280;49026;52.600;4.694;2023-04-21T11:51:37;101421.34;;;13.08;74.41
62725;BME280;49026;52.600;4.694;2023-04-21T11:54:04;101426.22;;;13.18;74.50
62725;BME280;49026;52.600;4.694;2023-04-21T11:56:34;101416.78;;;13.34;74.82
62725;BME280;49026;52.600;4.694;2023-04-21T11:59:08;101416.19;;;13.48;74.63
62725;BME280;49026;52.600;4.694;2023-04-21T12:01:41;101426.03;;;13.65;73.77
62725;BME280;49026;52.600;4.694;2023-04-21T12:04:12;101418.16;;;13.84;73.32
62725;BME280;49026;52.600;4.694;2023-04-21T12:06:38;101421.63;;;14.05;71.78
62725;BME280;49026;52.600;4.694;2023-04-21T12:09:03;101420.66;;;13.87;71.25
62725;BME280;49026;52.600;4.694;2023-04-21T12:11:30;101413.78;;;13.83;72.53
62725;BME280;49026;52.600;4.694;2023-04-21T12:14:01;101421.19;;;13.75;72.08
62725;BME280;49026;52.600;4.694;2023-04-21T12:16:27;101409.59;;;13.58;72.38
62725;BME280;49026;52.600;4.694;2023-04-21T12:18:56;101415.22;;;13.50;72.82
62725;BME280;49026;52.600;4.694;2023-04-21T12:21:26;101413.78;;;13.43;71.69
62725;BME280;49026;52.600;4.694;2023-04-21T12:23:51;101404.56;;;13.31;72.44
62725;BME280;49026;52.600;4.694;2023-04-21T12:26:20;101403.53;;;13.36;72.05
62725;BME280;49026;52.600;4.694;2023-04-21T12:28:47;101398.78;;;13.44;72.70
62725;BME280;49026;52.600;4.694;2023-04-21T12:31:17;101397.16;;;13.81;73.65
62725;BME280;49026;52.600;4.694;2023-04-21T12:33:42;101391.47;;;14.28;70.01
62725;BME280;49026;52.600;4.694;2023-04-21T12:36:07;101389.19;;;14.39;70.77
62725;BME280;49026;52.600;4.694;2023-04-21T12:38:32;101376.16;;;14.54;70.63
62725;BME280;49026;52.600;4.694;2023-04-21T12:40:58;101364.56;;;14.75;69.93
62725;BME280;49026;52.600;4.694;2023-04-21T12:43:23;101372.13;;;14.83;69.28
62725;BME280;49026;52.600;4.694;2023-04-21T12:45:49;101374.00;;;15.16;69.64
62725;BME280;49026;52.600;4.694;2023-04-21T12:48:14;101370.81;;;15.44;69.51
62725;BME280;49026;52.600;4.694;2023-04-21T12:50:40;101363.91;;;15.57;67.78
62725;BME280;49026;52.600;4.694;2023-04-21T12:53:05;101365.63;;;15.76;68.16
62725;BME280;49026;52.600;4.694;2023-04-21T12:55:33;101369.16;;;15.92;66.94
62725;BME280;49026;52.600;4.694;2023-04-21T12:57:59;101356.56;;;15.80;66.89
62725;BME280;49026;52.600;4.694;2023-04-21T13:00:24;101354.94;;;15.78;68.18
62725;BME280;49026;52.600;4.694;2023-04-21T13:02:49;101346.22;;;15.76;64.96
62725;BME280;49026;52.600;4.694;2023-04-21T13:05:15;101354.94;;;15.78;66.08
62725;BME280;49026;52.600;4.694;2023-04-21T13:07:40;101346.28;;;15.74;66.10
62725;BME280;49026;52.600;4.694;2023-04-21T13:10:06;101350.00;;;15.87;64.35